Atb Freeport — WDD6704 — position and weather

sailwx.info

Track history (hours):
 
Tides and Currents Weather Stations Pressure Air Temp Water Temp Dewpoint Dewpoint Depression Visibility Wind Speed Wind Dir Waves Ship Positions

Atb Freeport

Owner: US Shipping Corp, Edison, NJ. More information available from US FCC via Universal Licensing System and Coast Guard Vessel Documentation Center.

Last reported at 2017-Sep-24 04:56 UTC. Time now 2017-Sep-24 05:14 UTC.
Position N 40°46' W 072°10'.

Length 184 m; draft 6.7 m.

Type: Ship (hazmat cat A). MMSI: 367690000.

Date/timePositionNaut miles runAvg speedWind from/ knotsBaromVisibWave heightAir tempDewpointWater temp
2017-Sep-24 04:56N 40°46' W 072°10'7410.9
2017-Sep-23 22:07N 39°59' W 073°25'1811.2
2017-Sep-23 20:31N 39°46' W 073°42'011.3
2017-Sep-23 20:30N 39°46' W 073°42'611.1
2017-Sep-23 20:00N 39°42' W 073°46'54610.6
2017-Sep-21 16:25N 32°04' W 079°53'1112.3
2017-Sep-21 15:34N 31°59' W 080°04'112.6
2017-Sep-21 15:30N 31°59' W 080°05'1012.5
2017-Sep-21 14:40N 31°59' W 080°17'212.4
2017-Sep-21 14:29N 31°59' W 080°20'612.3
2017-Sep-21 14:00N 31°59' W 080°27'612.1
2017-Sep-21 13:30N 31°58' W 080°34'611.9
2017-Sep-21 13:00N 31°58' W 080°41'510.9
2017-Sep-21 12:30N 31°60' W 080°47'5 9.0
2017-Sep-21 12:00N 32°02' W 080°52'4 8.8
2017-Sep-21 11:30N 32°04' W 080°57'4 8.3
2017-Sep-21 11:00N 32°06' W 081°01'4 7.7
2017-Sep-21 10:30N 32°05' W 081°05'2 3.0
2017-Sep-21 09:58N 32°06' W 081°07'0 0.0
2017-Sep-21 09:22N 32°06' W 081°07'0 0.0
2017-Sep-21 09:00N 32°06' W 081°07'0 0.0
2017-Sep-21 08:30N 32°06' W 081°07'0 0.0
2017-Sep-21 08:00N 32°06' W 081°07'0 0.0
2017-Sep-21 07:30N 32°06' W 081°07'0 0.0
2017-Sep-21 07:00N 32°06' W 081°07'0 0.0
2017-Sep-21 06:30N 32°06' W 081°07'0 0.0
2017-Sep-21 06:00N 32°06' W 081°07'0 0.0
2017-Sep-21 05:29N 32°06' W 081°07'0 0.0
2017-Sep-21 05:00N 32°06' W 081°07'0 0.0
2017-Sep-21 04:30N 32°06' W 081°07'0 0.0
2017-Sep-21 04:01N 32°06' W 081°07'0 0.0
2017-Sep-21 03:31N 32°06' W 081°07'0 0.0
2017-Sep-21 03:01N 32°06' W 081°07'0 0.0
2017-Sep-21 02:30N 32°06' W 081°07'0 0.0
2017-Sep-21 02:00N 32°06' W 081°07'0 0.0
2017-Sep-21 01:30N 32°06' W 081°07'0 0.0
2017-Sep-21 01:00N 32°06' W 081°07'0 0.0
2017-Sep-21 00:31N 32°06' W 081°07'0 0.0
2017-Sep-20 23:59N 32°06' W 081°07'0 0.0
2017-Sep-20 23:31N 32°06' W 081°07'0 0.0
2017-Sep-20 23:00N 32°06' W 081°07'0 0.0
2017-Sep-20 22:30N 32°06' W 081°07'0 0.0
2017-Sep-20 22:00N 32°06' W 081°07'0 0.0
2017-Sep-20 21:30N 32°06' W 081°07'0 0.0
2017-Sep-20 21:00N 32°06' W 081°07'0 0.0
2017-Sep-20 20:31N 32°06' W 081°07'0 0.0
2017-Sep-20 20:00N 32°06' W 081°07'0 0.0
2017-Sep-20 19:30N 32°06' W 081°07'0 0.0
2017-Sep-20 19:00N 32°06' W 081°07'0 0.0
2017-Sep-20 18:30N 32°06' W 081°07'0 0.0
2017-Sep-20 18:00N 32°06' W 081°07'0 0.0
2017-Sep-20 17:30N 32°06' W 081°07'0 0.0
2017-Sep-20 17:00N 32°06' W 081°07'0 0.0
2017-Sep-20 16:30N 32°06' W 081°07'0 0.0
2017-Sep-20 16:01N 32°06' W 081°07'0 0.0
2017-Sep-20 15:30N 32°06' W 081°07'0 0.0
2017-Sep-20 15:00N 32°06' W 081°07'0 0.0
2017-Sep-20 14:00N 32°06' W 081°07'0 0.0
2017-Sep-20 13:30N 32°06' W 081°07'0 0.0
2017-Sep-20 13:00N 32°06' W 081°07'0 0.0
2017-Sep-20 12:30N 32°06' W 081°07'0 0.0
2017-Sep-20 12:00N 32°06' W 081°07'1 1.2
2017-Sep-20 11:30N 32°07' W 081°07'1 1.4
2017-Sep-20 11:00N 32°07' W 081°08'0 0.0
2017-Sep-20 10:30N 32°07' W 081°08'0 0.0
2017-Sep-20 10:00N 32°07' W 081°08'0 0.0
2017-Sep-20 09:30N 32°07' W 081°08'0 0.0
2017-Sep-20 09:00N 32°07' W 081°08'0 0.0
2017-Sep-20 08:30N 32°07' W 081°08'0 0.0
2017-Sep-20 08:00N 32°07' W 081°08'0 0.0
2017-Sep-20 07:30N 32°07' W 081°08'0 0.0
2017-Sep-20 07:00N 32°07' W 081°08'0 0.0
2017-Sep-20 06:30N 32°07' W 081°08'0 0.0
2017-Sep-20 06:00N 32°07' W 081°08'0 0.0
2017-Sep-20 05:30N 32°07' W 081°08'0 0.0
2017-Sep-20 05:00N 32°07' W 081°08'0 0.0
2017-Sep-20 04:30N 32°07' W 081°08'0 0.0
2017-Sep-20 04:00N 32°07' W 081°08'0 0.0
2017-Sep-20 03:30N 32°07' W 081°08'0 0.0
2017-Sep-20 03:00N 32°07' W 081°08'0 0.0
2017-Sep-20 02:30N 32°07' W 081°08'0 0.1
2017-Sep-20 02:00N 32°07' W 081°08'0 0.1
2017-Sep-20 01:30N 32°07' W 081°08'0 0.0
2017-Sep-20 01:01N 32°07' W 081°08'0 0.0
2017-Sep-20 00:30N 32°07' W 081°08'0 0.0
2017-Sep-20 00:00N 32°07' W 081°08'0 0.0
2017-Sep-19 23:30N 32°07' W 081°08'0 0.0
2017-Sep-19 23:00N 32°07' W 081°08'0 0.0
2017-Sep-19 22:31N 32°07' W 081°08'0 0.0
2017-Sep-19 22:00N 32°07' W 081°08'0 0.0
2017-Sep-19 21:30N 32°07' W 081°08'0 0.0
2017-Sep-19 21:01N 32°07' W 081°08'0 0.0
2017-Sep-19 20:30N 32°07' W 081°08'0 0.0
2017-Sep-19 20:00N 32°07' W 081°08'0 0.0
2017-Sep-19 19:30N 32°07' W 081°08'0 0.0
2017-Sep-19 19:00N 32°07' W 081°08'0 0.0
2017-Sep-19 18:30N 32°07' W 081°08'0 0.0
2017-Sep-19 18:00N 32°07' W 081°08'0 0.1
2017-Sep-19 17:30N 32°07' W 081°08'0 0.8
2017-Sep-19 17:00N 32°07' W 081°08'2 3.8
2017-Sep-19 16:30N 32°06' W 081°07'0 0.5
2017-Sep-19 16:00N 32°06' W 081°06'0 0.0
2017-Sep-19 15:31N 32°06' W 081°06'0 0.0
2017-Sep-19 15:00N 32°06' W 081°06'0 0.0
2017-Sep-19 14:30N 32°06' W 081°06'0 0.0
2017-Sep-19 14:00N 32°06' W 081°06'0 0.0
2017-Sep-19 13:30N 32°06' W 081°06'0 0.0
2017-Sep-19 13:00N 32°06' W 081°06'0 0.0
2017-Sep-19 12:30N 32°06' W 081°06'0 0.0
2017-Sep-19 12:01N 32°06' W 081°06'0 0.0
2017-Sep-19 11:31N 32°06' W 081°06'0 0.0
2017-Sep-19 11:00N 32°06' W 081°06'0 0.0
2017-Sep-19 10:31N 32°06' W 081°06'0 0.0
2017-Sep-19 09:59N 32°06' W 081°06'0 0.0
2017-Sep-19 09:30N 32°06' W 081°06'0 0.0
2017-Sep-19 09:01N 32°06' W 081°06'0 0.0
2017-Sep-19 08:30N 32°06' W 081°06'0 0.0
2017-Sep-19 08:00N 32°06' W 081°06'0 0.0
2017-Sep-19 07:30N 32°06' W 081°06'0 0.0
2017-Sep-19 07:00N 32°06' W 081°06'0 0.0
2017-Sep-19 06:30N 32°06' W 081°06'0 0.0
2017-Sep-19 06:00N 32°06' W 081°06'0 0.0
2017-Sep-19 05:30N 32°06' W 081°06'0 0.0
2017-Sep-19 05:00N 32°06' W 081°06'0 0.0
2017-Sep-19 04:30N 32°06' W 081°06'0 0.0
2017-Sep-19 04:01N 32°06' W 081°06'0 0.0
2017-Sep-19 03:30N 32°06' W 081°06'0 0.0
2017-Sep-19 03:00N 32°06' W 081°06'0 0.0
2017-Sep-19 02:30N 32°06' W 081°06'0 0.0
2017-Sep-19 02:00N 32°06' W 081°06'0 0.0
2017-Sep-19 01:30N 32°06' W 081°06'0 0.0
2017-Sep-19 01:00N 32°06' W 081°06'0 0.0
2017-Sep-19 00:30N 32°06' W 081°06'0 0.0
2017-Sep-19 00:01N 32°06' W 081°06'0 0.0
2017-Sep-18 23:28N 32°06' W 081°06'0 0.0
2017-Sep-18 23:00N 32°06' W 081°06'0 0.0
2017-Sep-18 22:30N 32°06' W 081°06'0 0.0
2017-Sep-18 22:00N 32°06' W 081°06'0 0.0
2017-Sep-18 21:30N 32°06' W 081°06'0 0.1
2017-Sep-18 21:00N 32°06' W 081°06'2 4.9
2017-Sep-18 20:30N 32°05' W 081°04'4 8.5
2017-Sep-18 20:01N 32°05' W 080°59'611.4
2017-Sep-18 19:30N 32°02' W 080°52'612.0
2017-Sep-18 19:00N 31°59' W 080°46'612.2
2017-Sep-18 18:30N 31°55' W 080°41'612.4
2017-Sep-18 18:00N 31°51' W 080°36'612.0
2017-Sep-18 17:28N 31°45' W 080°33'34312.7
2017-Sep-17 14:33N 26°04' W 079°51'114.9
2017-Sep-17 14:30N 26°03' W 079°51'714.9
2017-Sep-17 14:00N 25°56' W 079°53'714.8
2017-Sep-17 13:30N 25°49' W 079°54'714.6
2017-Sep-17 13:00N 25°41' W 079°55'814.7
2017-Sep-17 12:29N 25°34' W 079°56'714.8
2017-Sep-17 12:00N 25°27' W 079°57'  
Track history (hours):
 
Tides and Currents Weather Stations Pressure Air Temp Water Temp Dewpoint Dewpoint Depression Visibility Wind Speed Wind Dir Waves Ship Positions

Atb Freeport

Owner: US Shipping Corp, Edison, NJ. More information available from US FCC via Universal Licensing System and Coast Guard Vessel Documentation Center.

Last reported at 2017-Sep-24 04:56 UTC. Time now 2017-Sep-24 05:14 UTC.
Position N 40°46' W 072°10'.

Length 184 m; draft 6.7 m.

Type: Ship (hazmat cat A). MMSI: 367690000.

Date/timePositionNaut miles runAvg speedWind from/ knotsBaromVisibWave heightAir tempDewpointWater temp
2017-Sep-24 04:56N 40°46' W 072°10'7410.9
2017-Sep-23 22:07N 39°59' W 073°25'1811.2
2017-Sep-23 20:31N 39°46' W 073°42'011.3
2017-Sep-23 20:30N 39°46' W 073°42'611.1
2017-Sep-23 20:00N 39°42' W 073°46'54610.6
2017-Sep-21 16:25N 32°04' W 079°53'1112.3
2017-Sep-21 15:34N 31°59' W 080°04'112.6
2017-Sep-21 15:30N 31°59' W 080°05'1012.5
2017-Sep-21 14:40N 31°59' W 080°17'212.4
2017-Sep-21 14:29N 31°59' W 080°20'612.3
2017-Sep-21 14:00N 31°59' W 080°27'612.1
2017-Sep-21 13:30N 31°58' W 080°34'611.9
2017-Sep-21 13:00N 31°58' W 080°41'510.9
2017-Sep-21 12:30N 31°60' W 080°47'5 9.0
2017-Sep-21 12:00N 32°02' W 080°52'4 8.8
2017-Sep-21 11:30N 32°04' W 080°57'4 8.3
2017-Sep-21 11:00N 32°06' W 081°01'4 7.7
2017-Sep-21 10:30N 32°05' W 081°05'2 3.0
2017-Sep-21 09:58N 32°06' W 081°07'0 0.0
2017-Sep-21 09:22N 32°06' W 081°07'0 0.0
2017-Sep-21 09:00N 32°06' W 081°07'0 0.0
2017-Sep-21 08:30N 32°06' W 081°07'0 0.0
2017-Sep-21 08:00N 32°06' W 081°07'0 0.0
2017-Sep-21 07:30N 32°06' W 081°07'0 0.0
2017-Sep-21 07:00N 32°06' W 081°07'0 0.0
2017-Sep-21 06:30N 32°06' W 081°07'0 0.0
2017-Sep-21 06:00N 32°06' W 081°07'0 0.0
2017-Sep-21 05:29N 32°06' W 081°07'0 0.0
2017-Sep-21 05:00N 32°06' W 081°07'0 0.0
2017-Sep-21 04:30N 32°06' W 081°07'0 0.0
2017-Sep-21 04:01N 32°06' W 081°07'0 0.0
2017-Sep-21 03:31N 32°06' W 081°07'0 0.0
2017-Sep-21 03:01N 32°06' W 081°07'0 0.0
2017-Sep-21 02:30N 32°06' W 081°07'0 0.0
2017-Sep-21 02:00N 32°06' W 081°07'0 0.0
2017-Sep-21 01:30N 32°06' W 081°07'0 0.0
2017-Sep-21 01:00N 32°06' W 081°07'0 0.0
2017-Sep-21 00:31N 32°06' W 081°07'0 0.0
2017-Sep-20 23:59N 32°06' W 081°07'0 0.0
2017-Sep-20 23:31N 32°06' W 081°07'0 0.0
2017-Sep-20 23:00N 32°06' W 081°07'0 0.0
2017-Sep-20 22:30N 32°06' W 081°07'0 0.0
2017-Sep-20 22:00N 32°06' W 081°07'0 0.0
2017-Sep-20 21:30N 32°06' W 081°07'0 0.0
2017-Sep-20 21:00N 32°06' W 081°07'0 0.0
2017-Sep-20 20:31N 32°06' W 081°07'0 0.0
2017-Sep-20 20:00N 32°06' W 081°07'0 0.0
2017-Sep-20 19:30N 32°06' W 081°07'0 0.0
2017-Sep-20 19:00N 32°06' W 081°07'0 0.0
2017-Sep-20 18:30N 32°06' W 081°07'0 0.0
2017-Sep-20 18:00N 32°06' W 081°07'0 0.0
2017-Sep-20 17:30N 32°06' W 081°07'0 0.0
2017-Sep-20 17:00N 32°06' W 081°07'0 0.0
2017-Sep-20 16:30N 32°06' W 081°07'0 0.0
2017-Sep-20 16:01N 32°06' W 081°07'0 0.0
2017-Sep-20 15:30N 32°06' W 081°07'0 0.0
2017-Sep-20 15:00N 32°06' W 081°07'0 0.0
2017-Sep-20 14:00N 32°06' W 081°07'0 0.0
2017-Sep-20 13:30N 32°06' W 081°07'0 0.0
2017-Sep-20 13:00N 32°06' W 081°07'0 0.0
2017-Sep-20 12:30N 32°06' W 081°07'0 0.0
2017-Sep-20 12:00N 32°06' W 081°07'1 1.2
2017-Sep-20 11:30N 32°07' W 081°07'1 1.4
2017-Sep-20 11:00N 32°07' W 081°08'0 0.0
2017-Sep-20 10:30N 32°07' W 081°08'0 0.0
2017-Sep-20 10:00N 32°07' W 081°08'0 0.0
2017-Sep-20 09:30N 32°07' W 081°08'0 0.0
2017-Sep-20 09:00N 32°07' W 081°08'0 0.0
2017-Sep-20 08:30N 32°07' W 081°08'0 0.0
2017-Sep-20 08:00N 32°07' W 081°08'0 0.0
2017-Sep-20 07:30N 32°07' W 081°08'0 0.0
2017-Sep-20 07:00N 32°07' W 081°08'0 0.0
2017-Sep-20 06:30N 32°07' W 081°08'0 0.0
2017-Sep-20 06:00N 32°07' W 081°08'0 0.0
2017-Sep-20 05:30N 32°07' W 081°08'0 0.0
2017-Sep-20 05:00N 32°07' W 081°08'0 0.0
2017-Sep-20 04:30N 32°07' W 081°08'0 0.0
2017-Sep-20 04:00N 32°07' W 081°08'0 0.0
2017-Sep-20 03:30N 32°07' W 081°08'0 0.0
2017-Sep-20 03:00N 32°07' W 081°08'0 0.0
2017-Sep-20 02:30N 32°07' W 081°08'0 0.1
2017-Sep-20 02:00N 32°07' W 081°08'0 0.1
2017-Sep-20 01:30N 32°07' W 081°08'0 0.0
2017-Sep-20 01:01N 32°07' W 081°08'0 0.0
2017-Sep-20 00:30N 32°07' W 081°08'0 0.0
2017-Sep-20 00:00N 32°07' W 081°08'0 0.0
2017-Sep-19 23:30N 32°07' W 081°08'0 0.0
2017-Sep-19 23:00N 32°07' W 081°08'0 0.0
2017-Sep-19 22:31N 32°07' W 081°08'0 0.0
2017-Sep-19 22:00N 32°07' W 081°08'0 0.0
2017-Sep-19 21:30N 32°07' W 081°08'0 0.0
2017-Sep-19 21:01N 32°07' W 081°08'0 0.0
2017-Sep-19 20:30N 32°07' W 081°08'0 0.0
2017-Sep-19 20:00N 32°07' W 081°08'0 0.0
2017-Sep-19 19:30N 32°07' W 081°08'0 0.0
2017-Sep-19 19:00N 32°07' W 081°08'0 0.0
2017-Sep-19 18:30N 32°07' W 081°08'0 0.0
2017-Sep-19 18:00N 32°07' W 081°08'0 0.1
2017-Sep-19 17:30N 32°07' W 081°08'0 0.8
2017-Sep-19 17:00N 32°07' W 081°08'2 3.8
2017-Sep-19 16:30N 32°06' W 081°07'0 0.5
2017-Sep-19 16:00N 32°06' W 081°06'0 0.0
2017-Sep-19 15:31N 32°06' W 081°06'0 0.0
2017-Sep-19 15:00N 32°06' W 081°06'0 0.0
2017-Sep-19 14:30N 32°06' W 081°06'0 0.0
2017-Sep-19 14:00N 32°06' W 081°06'0 0.0
2017-Sep-19 13:30N 32°06' W 081°06'0 0.0
2017-Sep-19 13:00N 32°06' W 081°06'0 0.0
2017-Sep-19 12:30N 32°06' W 081°06'0 0.0
2017-Sep-19 12:01N 32°06' W 081°06'0 0.0
2017-Sep-19 11:31N 32°06' W 081°06'0 0.0
2017-Sep-19 11:00N 32°06' W 081°06'0 0.0
2017-Sep-19 10:31N 32°06' W 081°06'0 0.0
2017-Sep-19 09:59N 32°06' W 081°06'0 0.0
2017-Sep-19 09:30N 32°06' W 081°06'0 0.0
2017-Sep-19 09:01N 32°06' W 081°06'0 0.0
2017-Sep-19 08:30N 32°06' W 081°06'0 0.0
2017-Sep-19 08:00N 32°06' W 081°06'0 0.0
2017-Sep-19 07:30N 32°06' W 081°06'0 0.0
2017-Sep-19 07:00N 32°06' W 081°06'0 0.0
2017-Sep-19 06:30N 32°06' W 081°06'0 0.0
2017-Sep-19 06:00N 32°06' W 081°06'0 0.0
2017-Sep-19 05:30N 32°06' W 081°06'0 0.0
2017-Sep-19 05:00N 32°06' W 081°06'0 0.0
2017-Sep-19 04:30N 32°06' W 081°06'0 0.0
2017-Sep-19 04:01N 32°06' W 081°06'0 0.0
2017-Sep-19 03:30N 32°06' W 081°06'0 0.0
2017-Sep-19 03:00N 32°06' W 081°06'0 0.0
2017-Sep-19 02:30N 32°06' W 081°06'0 0.0
2017-Sep-19 02:00N 32°06' W 081°06'0 0.0
2017-Sep-19 01:30N 32°06' W 081°06'0 0.0
2017-Sep-19 01:00N 32°06' W 081°06'0 0.0
2017-Sep-19 00:30N 32°06' W 081°06'0 0.0
2017-Sep-19 00:01N 32°06' W 081°06'0 0.0
2017-Sep-18 23:28N 32°06' W 081°06'0 0.0
2017-Sep-18 23:00N 32°06' W 081°06'0 0.0
2017-Sep-18 22:30N 32°06' W 081°06'0 0.0
2017-Sep-18 22:00N 32°06' W 081°06'0 0.0
2017-Sep-18 21:30N 32°06' W 081°06'0 0.1
2017-Sep-18 21:00N 32°06' W 081°06'2 4.9
2017-Sep-18 20:30N 32°05' W 081°04'4 8.5
2017-Sep-18 20:01N 32°05' W 080°59'611.4
2017-Sep-18 19:30N 32°02' W 080°52'612.0
2017-Sep-18 19:00N 31°59' W 080°46'612.2
2017-Sep-18 18:30N 31°55' W 080°41'612.4
2017-Sep-18 18:00N 31°51' W 080°36'612.0
2017-Sep-18 17:28N 31°45' W 080°33'34312.7
2017-Sep-17 14:33N 26°04' W 079°51'114.9
2017-Sep-17 14:30N 26°03' W 079°51'714.9
2017-Sep-17 14:00N 25°56' W 079°53'714.8
2017-Sep-17 13:30N 25°49' W 079°54'714.6
2017-Sep-17 13:00N 25°41' W 079°55'814.7
2017-Sep-17 12:29N 25°34' W 079°56'714.8
2017-Sep-17 12:00N 25°27' W 079°57'  

Dump ship's entire track history